Time;durP1;ratioP1;P1;durP2;ratioP2;P2;SDS_P1;SDS_P2;PMS_P1;PMS_P2;Temp;Humidity;BMP_temperature;BMP_pressure;BME280_temperature;BME280_humidity;BME280_pressure;Samples;Min_cycle;Max_cycle;Signal;HPM_P1;HPM_P2
2022/01/30 00:04:31;;;;;;;20.65;4.22;;;;;;;7.90;57.56;100724.88;10486401;28;20135;-69
2022/01/30 00:09:33;;;;;;;21.48;4.03;;;;;;;7.78;57.15;100738.31;10474371;28;20052;-68
2022/01/30 00:14:37;;;;;;;21.42;4.50;;;;;;;7.70;57.56;100737.75;10475015;28;20045;-68
2022/01/30 00:19:44;;;;;;;22.65;4.50;;;;;;;7.76;57.35;100732.31;10474449;28;20049;-68
2022/01/30 00:25:00;;;;;;;20.95;4.60;;;;;;;7.63;57.43;100725.84;10474531;28;20565;-68
2022/01/30 00:30:03;;;;;;;21.10;4.43;;;;;;;7.67;57.62;100690.97;10473927;28;20052;-68
2022/01/30 00:35:05;;;;;;;18.15;4.82;;;;;;;7.54;57.34;100701.88;10474136;28;20381;-68
2022/01/30 00:40:08;;;;;;;16.08;4.25;;;;;;;7.58;57.39;100714.75;10473754;28;20063;-68
2022/01/30 00:45:10;;;;;;;26.52;4.68;;;;;;;7.58;57.42;100714.75;10473348;28;21064;-68
2022/01/30 00:50:12;;;;;;;31.48;4.97;;;;;;;7.50;57.62;100716.78;10481965;28;20059;-68
2022/01/30 00:55:14;;;;;;;22.65;4.22;;;;;;;7.50;57.54;100718.50;10473535;28;20052;-68
2022/01/30 01:00:16;;;;;;;21.40;4.45;;;;;;;7.54;57.49;100714.91;10472920;28;20365;-68
2022/01/30 01:05:19;;;;;;;23.63;5.63;;;;;;;7.47;57.59;100724.66;10473323;28;20143;-68
2022/01/30 01:10:46;;;;;;;23.67;4.70;;;;;;;7.27;57.65;100721.91;10472851;28;20453;-67
2022/01/30 01:26:21;;;;;;;19.10;3.97;;;;;;;7.23;57.10;100735.91;10471979;28;20132;-68
2022/01/30 01:31:23;;;;;;;19.88;4.38;;;;;;;7.21;56.60;100745.53;10471090;28;20066;-68
2022/01/30 01:36:26;;;;;;;19.42;4.13;;;;;;;7.10;56.64;100738.06;10470938;28;20504;-68
2022/01/30 01:41:29;;;;;;;16.40;3.92;;;;;;;6.95;56.06;100745.53;10471857;28;20127;-67
2022/01/30 01:46:35;;;;;;;22.10;4.70;;;;;;;6.97;55.90;100749.78;10471845;28;20128;-68
2022/01/30 01:51:37;;;;;;;21.50;4.63;;;;;;;7.00;55.65;100738.41;10478432;28;20198;-68
2022/01/30 01:56:38;;;;;;;20.08;4.20;;;;;;;7.01;55.63;100732.31;10469981;28;20526;-67
2022/01/30 02:01:40;;;;;;;18.58;4.60;;;;;;;6.95;55.54;100748.13;10470197;28;20555;-68
2022/01/30 02:06:43;;;;;;;22.80;4.53;;;;;;;6.91;55.97;100764.72;10470289;28;20048;-68
2022/01/30 02:11:47;;;;;;;22.48;4.28;;;;;;;6.91;55.27;100762.13;10469675;28;20404;-68
2022/01/30 02:27:38;;;;;;;22.33;4.85;;;;;;;6.76;55.33;100783.38;10468477;28;20905;-68
2022/01/30 02:32:40;;;;;;;21.08;4.82;;;;;;;6.66;54.77;100771.56;10469890;28;20059;-67
2022/01/30 02:37:42;;;;;;;21.40;4.47;;;;;;;6.80;54.38;100779.78;10468645;28;20382;-68
2022/01/30 02:42:48;;;;;;;18.73;3.92;;;;;;;6.55;54.55;100777.09;10483825;28;20071;-68
2022/01/30 02:47:58;;;;;;;23.33;4.07;;;;;;;6.56;54.21;100802.19;10481785;28;20372;-68
2022/01/30 02:53:05;;;;;;;16.90;3.88;;;;;;;6.25;53.74;100791.84;10467120;28;20056;-67
2022/01/30 02:58:07;;;;;;;25.75;5.03;;;;;;;6.31;53.97;100793.41;10468926;28;20142;-67
2022/01/30 03:03:09;;;;;;;26.15;4.85;;;;;;;6.43;53.88;100808.63;10471887;28;20462;-68
2022/01/30 03:08:11;;;;;;;29.63;5.20;;;;;;;6.30;54.15;100802.09;10473911;28;20059;-67
2022/01/30 03:13:12;;;;;;;24.25;4.45;;;;;;;6.15;54.18;100818.94;10475738;28;20048;-68
2022/01/30 03:18:14;;;;;;;26.70;5.28;;;;;;;6.17;53.93;100831.88;10475964;28;20131;-68
2022/01/30 03:23:16;;;;;;;27.98;4.85;;;;;;;6.28;54.61;100841.13;10475175;28;20052;-68
2022/01/30 03:28:17;;;;;;;28.55;4.55;;;;;;;6.15;54.48;100847.50;10475301;28;20630;-68
2022/01/30 03:33:19;;;;;;;27.17;5.05;;;;;;;6.19;54.59;100856.03;10482480;28;20063;-68
2022/01/30 03:38:22;;;;;;;22.38;4.57;;;;;;;6.09;54.60;100841.59;10486426;28;20068;-68
2022/01/30 03:43:24;;;;;;;24.65;4.93;;;;;;;6.12;54.62;100857.13;10486733;28;20814;-69
2022/01/30 03:48:26;;;;;;;30.10;6.53;;;;;;;5.97;54.77;100860.13;10489314;28;20048;-68
2022/01/30 03:53:31;;;;;;;24.02;5.00;;;;;;;5.82;55.09;100871.75;10488985;28;20052;-68
2022/01/30 03:58:33;;;;;;;29.98;5.22;;;;;;;5.80;55.51;100852.75;10486954;28;20511;-68
2022/01/30 04:03:36;;;;;;;29.30;5.03;;;;;;;5.73;55.51;100859.00;10504392;28;20052;-69
2022/01/30 04:08:39;;;;;;;25.90;5.05;;;;;;;5.67;55.78;100873.88;10481785;28;20050;-68
2022/01/30 04:13:41;;;;;;;26.88;5.07;;;;;;;5.42;55.90;100865.84;10515657;28;20474;-68
2022/01/30 04:18:42;;;;;;;26.67;5.55;;;;;;;5.39;55.89;100855.53;10489345;28;20419;-68
2022/01/30 04:23:44;;;;;;;27.10;5.60;;;;;;;5.19;56.16;100874.16;10517595;28;20058;-68
2022/01/30 04:28:46;;;;;;;30.13;4.90;;;;;;;5.22;56.45;100879.28;10522619;28;20048;-68
2022/01/30 04:33:48;;;;;;;25.10;4.90;;;;;;;5.28;56.80;100883.47;10485952;28;20066;-68
2022/01/30 05:10:10;;;;;;;25.48;4.85;;;;;;;5.29;55.54;100886.00;10474224;28;20638;-68
2022/01/30 05:15:13;;;;;;;22.80;4.68;;;;;;;5.37;55.55;100898.81;10471692;28;20127;-68
2022/01/30 05:20:15;;;;;;;23.60;4.50;;;;;;;5.44;55.51;100913.34;10472027;28;20049;-68
2022/01/30 05:25:17;;;;;;;24.52;5.25;;;;;;;5.46;55.81;100908.97;10473898;28;20045;-68
2022/01/30 05:30:19;;;;;;;26.30;4.70;;;;;;;5.47;55.99;100910.69;10472124;28;20071;-68
2022/01/30 05:35:21;;;;;;;26.38;4.80;;;;;;;5.40;55.97;100903.94;10472730;28;20461;-68
2022/01/30 05:40:23;;;;;;;20.27;4.22;;;;;;;5.42;55.94;100910.78;10472163;28;20483;-68
2022/01/30 05:50:28;;;;;;;22.48;4.82;;;;;;;5.38;56.35;100926.47;10508147;28;20438;-68
2022/01/30 05:55:31;;;;;;;21.92;4.50;;;;;;;5.43;56.63;100935.84;10489737;28;20135;-68
2022/01/30 06:00:33;;;;;;;23.98;4.47;;;;;;;5.39;56.68;100936.78;10469812;28;20135;-68
2022/01/30 06:05:35;;;;;;;26.63;4.32;;;;;;;5.39;56.80;100948.94;10471461;28;20055;-68
2022/01/30 06:10:37;;;;;;;22.08;4.55;;;;;;;5.40;57.23;100955.81;10471195;28;20055;-68
2022/01/30 06:15:38;;;;;;;24.08;4.07;;;;;;;5.37;57.92;100961.91;10470259;28;20506;-68
2022/01/30 06:20:40;;;;;;;33.15;4.38;;;;;;;5.42;58.11;100956.63;10470775;28;20060;-68
2022/01/30 06:25:42;;;;;;;26.27;4.78;;;;;;;5.25;58.40;100969.09;10470961;28;20151;-68
2022/01/30 06:30:43;;;;;;;21.05;4.18;;;;;;;5.18;58.06;100975.31;10470158;28;20063;-68
2022/01/30 06:35:46;;;;;;;23.52;4.53;;;;;;;5.11;58.12;100989.28;10470139;28;20492;-68
2022/01/30 06:40:48;;;;;;;27.88;5.10;;;;;;;5.19;57.54;100982.19;10493974;28;20058;-68
2022/01/30 06:45:50;;;;;;;23.65;4.88;;;;;;;5.21;57.25;101001.16;10498899;28;20045;-68
2022/01/30 06:50:52;;;;;;;23.45;4.30;;;;;;;5.19;56.88;100992.56;10469403;28;20053;-69
2022/01/30 06:55:53;;;;;;;21.33;4.10;;;;;;;5.26;56.38;100994.16;10472791;28;20485;-69
2022/01/30 07:00:55;;;;;;;22.92;4.43;;;;;;;5.28;56.04;100987.22;10478729;28;20216;-68
2022/01/30 07:05:57;;;;;;;23.92;4.28;;;;;;;5.37;55.86;100976.66;10498609;28;20417;-69
2022/01/30 07:10:59;;;;;;;24.02;4.22;;;;;;;5.40;55.81;100981.75;10466607;28;20059;-70
2022/01/30 07:16:00;;;;;;;22.90;3.92;;;;;;;5.26;55.74;100987.25;10467886;28;20139;-71
2022/01/30 07:21:04;;;;;;;24.27;4.10;;;;;;;5.34;55.39;100992.25;10498790;28;20610;-70
2022/01/30 07:26:05;;;;;;;21.27;3.45;;;;;;;5.37;55.31;101005.19;10496799;28;20299;-70
2022/01/30 07:31:07;;;;;;;18.05;3.10;;;;;;;5.28;55.55;101003.63;10493841;28;20061;-70
2022/01/30 07:36:09;;;;;;;20.50;3.80;;;;;;;5.45;55.47;101017.06;10468325;28;20135;-69
2022/01/30 07:41:11;;;;;;;17.30;3.67;;;;;;;5.44;55.53;101028.34;10468744;28;20465;-70
2022/01/30 07:46:13;;;;;;;20.20;3.63;;;;;;;5.44;55.37;101043.06;10467838;28;20144;-69
2022/01/30 07:51:14;;;;;;;21.33;4.53;;;;;;;5.39;55.85;101044.91;10467809;28;20841;-69
2022/01/30 07:56:16;;;;;;;20.75;3.78;;;;;;;5.35;55.43;101035.50;10467731;28;20040;-70
2022/01/30 08:01:18;;;;;;;24.52;5.90;;;;;;;5.44;55.58;101050.84;10479656;28;20123;-70
2022/01/30 08:06:20;;;;;;;20.08;3.40;;;;;;;5.43;55.12;101059.53;10508783;28;20541;-69
2022/01/30 08:11:22;;;;;;;20.20;3.90;;;;;;;5.48;55.12;101047.28;10509104;28;20087;-69
2022/01/30 08:16:26;;;;;;;21.92;3.97;;;;;;;5.37;55.03;101057.06;10494171;28;20048;-69
2022/01/30 08:21:28;;;;;;;22.38;4.30;;;;;;;5.43;55.63;101068.13;10466625;28;20256;-68
2022/01/30 08:26:30;;;;;;;25.15;9.02;;;;;;;5.32;55.38;101084.81;10474788;28;20139;-69
2022/01/30 08:31:37;;;;;;;16.48;4.35;;;;;;;5.28;54.19;101071.06;10474437;28;20060;-69
2022/01/30 08:36:38;;;;;;;23.48;4.35;;;;;;;5.36;54.16;101087.31;10474615;28;20102;-69
2022/01/30 08:41:40;;;;;;;20.52;4.07;;;;;;;5.42;53.69;101094.13;10474583;28;20048;-69
2022/01/30 08:46:42;;;;;;;20.83;3.85;;;;;;;5.63;53.55;101087.63;10473735;28;20438;-69
2022/01/30 08:51:43;;;;;;;22.67;4.32;;;;;;;5.73;52.70;101089.16;10473981;28;20055;-69
2022/01/30 08:56:45;;;;;;;21.55;5.15;;;;;;;5.78;52.64;101087.31;10474389;28;20057;-69
2022/01/30 09:01:47;;;;;;;17.27;3.80;;;;;;;5.76;52.42;101079.53;10473596;28;20097;-69
2022/01/30 09:06:49;;;;;;;18.65;3.83;;;;;;;5.88;52.32;101088.81;10472510;28;20394;-69
2022/01/30 09:11:51;;;;;;;18.35;3.70;;;;;;;6.06;51.95;101065.84;10472394;28;20063;-69
2022/01/30 09:16:58;;;;;;;25.27;5.47;;;;;;;6.15;51.84;101052.69;10473326;28;20503;-69
2022/01/30 09:22:17;;;;;;;22.83;4.35;;;;;;;5.93;50.36;101061.00;10472863;28;20060;-69
2022/01/30 09:27:18;;;;;;;17.38;4.18;;;;;;;6.10;50.63;101058.88;10472817;28;20135;-69
2022/01/30 09:32:20;;;;;;;18.50;3.72;;;;;;;6.16;50.19;101050.94;10471974;28;20109;-69
2022/01/30 09:37:22;;;;;;;24.42;4.13;;;;;;;6.07;50.84;101071.91;10472774;28;20443;-69
2022/01/30 09:42:25;;;;;;;16.75;3.47;;;;;;;5.92;50.90;101067.09;10472154;28;20408;-69
2022/01/30 09:47:26;;;;;;;22.92;3.55;;;;;;;6.03;50.55;101055.56;10470876;28;20049;-69
2022/01/30 09:52:28;;;;;;;18.55;3.58;;;;;;;6.13;50.30;101043.19;10470195;28;20052;-69
2022/01/30 09:57:30;;;;;;;13.02;3.35;;;;;;;6.31;50.49;101048.84;10471603;28;20044;-69
2022/01/30 10:02:32;;;;;;;22.60;3.72;;;;;;;6.42;49.89;101051.19;10471602;28;20048;-69
2022/01/30 10:07:48;;;;;;;22.98;4.30;;;;;;;6.44;48.98;101051.13;10471369;28;20052;-69
2022/01/30 10:13:00;;;;;;;19.90;3.80;;;;;;;6.25;49.22;101042.94;10472623;28;20407;-69
2022/01/30 10:18:04;;;;;;;18.27;3.78;;;;;;;6.38;50.13;101059.94;10470939;28;20123;-69
2022/01/30 10:23:09;;;;;;;17.38;3.60;;;;;;;6.33;50.05;101098.16;10469148;28;20048;-69
2022/01/30 10:28:17;;;;;;;18.13;3.72;;;;;;;6.46;50.88;101112.56;10470188;28;20052;-69
2022/01/30 10:33:21;;;;;;;22.63;3.72;;;;;;;6.39;51.96;101124.00;10469742;28;20056;-69
2022/01/30 10:38:34;;;;;;;17.98;4.18;;;;;;;6.15;52.34;101125.41;10484862;28;20052;-67
2022/01/30 10:44:08;;;;;;;18.35;3.95;;;;;;;6.42;51.09;101108.34;10469762;28;20044;-67
2022/01/30 10:49:12;;;;;;;19.52;4.57;;;;;;;6.56;49.90;101095.88;10460701;28;20047;-67
2022/01/30 10:54:14;;;;;;;24.08;4.40;;;;;;;6.55;49.45;101088.94;10468097;28;20304;-67
2022/01/30 10:59:20;;;;;;;20.88;4.10;;;;;;;6.60;48.93;101086.25;10469285;28;20057;-67
2022/01/30 11:04:30;;;;;;;31.75;4.72;;;;;;;6.68;47.57;101092.09;10486053;28;20050;-67
2022/01/30 11:19:53;;;;;;;26.55;4.47;;;;;;;6.85;47.71;101095.13;10468571;28;20506;-67
2022/01/30 11:25:04;;;;;;;22.52;4.50;;;;;;;6.89;46.30;101083.75;10489145;28;20083;-67
2022/01/30 11:30:06;;;;;;;21.27;4.63;;;;;;;7.01;47.34;101093.81;10467776;28;20052;-67
2022/01/30 11:35:09;;;;;;;24.00;5.07;;;;;;;7.08;47.25;101105.78;10466958;28;20067;-68
2022/01/30 11:40:16;;;;;;;28.00;4.70;;;;;;;6.86;47.57;101089.88;10474902;28;20048;-67
2022/01/30 11:45:31;;;;;;;26.02;4.57;;;;;;;6.62;47.63;101108.72;10468195;28;20052;-67
2022/01/30 11:50:36;;;;;;;28.55;5.22;;;;;;;6.68;47.78;101105.09;10467954;28;20048;-67
2022/01/30 11:55:49;;;;;;;22.92;4.95;;;;;;;6.69;47.48;101109.41;10467224;28;20136;-67
2022/01/30 12:00:51;;;;;;;22.05;5.03;;;;;;;6.91;46.80;101097.56;10475862;28;20132;-67
2022/01/30 12:05:55;;;;;;;24.80;4.88;;;;;;;6.91;46.15;101103.63;10475918;28;20045;-67
2022/01/30 12:10:57;;;;;;;19.95;4.15;;;;;;;7.00;46.27;101084.31;10475178;28;20048;-66
2022/01/30 12:15:59;;;;;;;23.40;4.68;;;;;;;7.13;46.53;101083.94;10474706;28;20071;-67
2022/01/30 12:21:11;;;;;;;23.30;4.78;;;;;;;7.14;46.16;101090.03;10457128;28;20465;-67
2022/01/30 12:26:19;;;;;;;25.83;4.45;;;;;;;7.14;45.82;101090.03;10474967;28;20062;-67
2022/01/30 12:31:34;;;;;;;29.75;5.38;;;;;;;7.13;45.20;101073.53;10474321;28;20409;-67
2022/01/30 12:36:53;;;;;;;29.30;4.90;;;;;;;7.30;44.89;101072.22;10474780;28;20048;-67
2022/01/30 12:41:55;;;;;;;23.85;4.80;;;;;;;7.43;45.35;101070.97;10492627;28;20135;-67
2022/01/30 12:46:56;;;;;;;21.42;4.25;;;;;;;7.58;45.53;101058.38;10492999;28;20057;-67
2022/01/30 12:52:01;;;;;;;30.05;4.95;;;;;;;7.60;44.94;101063.53;10474537;28;20057;-67
2022/01/30 12:57:05;;;;;;;26.88;5.72;;;;;;;7.72;45.37;101053.59;10474560;28;20139;-67
2022/01/30 13:02:09;;;;;;;20.90;4.40;;;;;;;7.82;45.21;101049.81;10472943;28;20493;-67
2022/01/30 13:07:13;;;;;;;22.55;4.75;;;;;;;7.75;44.43;101048.28;10473312;28;20049;-68
2022/01/30 13:12:17;;;;;;;24.08;4.40;;;;;;;7.57;44.40;101042.81;10489031;28;20053;-67
2022/01/30 13:17:30;;;;;;;26.63;5.00;;;;;;;7.39;43.99;101046.78;10473235;28;20131;-67
2022/01/30 13:22:34;;;;;;;24.42;4.40;;;;;;;7.28;45.32;101045.41;10481755;28;20055;-67
2022/01/30 13:27:41;;;;;;;26.10;5.00;;;;;;;7.22;46.07;101050.78;10487848;28;20578;-67
2022/01/30 13:32:42;;;;;;;24.25;4.97;;;;;;;7.20;45.40;101045.63;10472878;28;20053;-67
2022/01/30 13:37:47;;;;;;;24.90;4.60;;;;;;;6.89;45.08;101042.16;10471526;28;20052;-67
2022/01/30 13:42:54;;;;;;;22.67;4.80;;;;;;;6.83;46.30;101048.38;10509478;28;20059;-67
2022/01/30 13:48:15;;;;;;;26.88;5.20;;;;;;;6.79;45.61;101048.50;10491297;28;20390;-67
2022/01/30 13:53:17;;;;;;;25.58;5.20;;;;;;;6.76;45.69;101054.63;10471883;28;20059;-67
2022/01/30 13:58:20;;;;;;;25.35;4.88;;;;;;;6.64;45.73;101054.06;10470834;28;20516;-67
2022/01/30 14:03:27;;;;;;;25.77;5.35;;;;;;;6.25;44.44;101050.72;10487056;28;20407;-67
2022/01/30 14:08:29;;;;;;;26.02;5.10;;;;;;;6.57;45.51;101055.97;10486605;28;20450;-67
2022/01/30 14:13:40;;;;;;;23.75;4.72;;;;;;;6.68;43.86;101053.09;10486807;28;20051;-66
2022/01/30 14:18:55;;;;;;;25.42;5.45;;;;;;;6.74;43.18;101050.34;10487442;28;20312;-67
2022/01/30 14:23:57;;;;;;;29.20;5.28;;;;;;;6.85;43.88;101044.00;10487830;28;20044;-67
2022/01/30 14:29:30;;;;;;;29.15;5.10;;;;;;;7.03;43.54;101038.28;10509234;28;20060;-67
2022/01/30 14:34:32;;;;;;;26.15;4.72;;;;;;;7.07;44.45;101037.31;10460668;28;20063;-68
2022/01/30 14:39:35;;;;;;;24.48;5.38;;;;;;;7.15;43.72;101034.47;10469062;28;20044;-67
2022/01/30 14:44:37;;;;;;;27.98;4.93;;;;;;;7.02;43.96;101027.94;10470205;28;20043;-68
2022/01/30 14:49:39;;;;;;;27.20;5.10;;;;;;;7.21;45.07;101031.69;10467036;28;20048;-67
2022/01/30 14:54:42;;;;;;;23.30;4.53;;;;;;;6.99;43.68;101017.59;10471721;28;20058;-68
2022/01/30 14:59:44;;;;;;;22.48;5.03;;;;;;;7.10;44.50;101025.97;10467377;28;20044;-68
2022/01/30 15:04:46;;;;;;;29.17;5.22;;;;;;;7.10;44.26;101015.56;10467587;28;20861;-68
2022/01/30 15:09:48;;;;;;;31.15;6.20;;;;;;;7.03;44.76;101003.59;10469555;28;20048;-68
2022/01/30 15:14:52;;;;;;;26.90;5.18;;;;;;;6.83;44.41;101000.72;10467773;28;20056;-67
2022/01/30 15:19:53;;;;;;;31.08;5.63;;;;;;;6.87;44.57;100998.00;10481000;28;20048;-68
2022/01/30 15:24:55;;;;;;;27.05;5.45;;;;;;;6.82;44.70;100999.00;10481895;28;20223;-67
2022/01/30 15:29:57;;;;;;;30.35;5.55;;;;;;;6.64;44.57;100997.75;10467283;28;20054;-68
2022/01/30 15:35:00;;;;;;;29.13;5.60;;;;;;;6.55;44.98;100981.56;10467933;28;20056;-68
2022/01/30 15:40:04;;;;;;;25.85;5.05;;;;;;;6.31;44.83;100986.50;10467359;28;20364;-68
2022/01/30 15:50:08;;;;;;;31.77;6.38;;;;;;;6.37;45.02;100974.25;10466090;28;20377;-68
2022/01/30 15:55:10;;;;;;;24.52;5.00;;;;;;;6.26;45.01;100967.59;10469710;28;20195;-67
2022/01/30 16:00:14;;;;;;;24.48;4.72;;;;;;;6.13;44.91;100971.34;10467489;28;20044;-67
2022/01/30 16:05:19;;;;;;;26.65;5.10;;;;;;;6.09;45.31;100969.72;10467032;28;20481;-68
2022/01/30 16:10:22;;;;;;;23.77;4.57;;;;;;;6.08;45.21;100962.81;10466987;28;20136;-67
2022/01/30 16:15:37;;;;;;;27.98;5.75;;;;;;;6.14;45.55;100974.81;10467165;28;20576;-67
2022/01/30 16:20:40;;;;;;;24.88;4.93;;;;;;;6.03;45.79;100972.47;10482542;28;20107;-67
2022/01/30 16:25:45;;;;;;;28.10;5.72;;;;;;;6.09;45.45;100985.31;10465060;28;20561;-67
2022/01/30 16:30:47;;;;;;;20.73;4.80;;;;;;;6.12;45.54;100971.41;10466228;28;20049;-67
2022/01/30 16:35:48;;;;;;;24.63;4.97;;;;;;;6.06;45.38;100969.78;10466992;28;20558;-68
2022/01/30 16:40:51;;;;;;;21.65;4.65;;;;;;;5.87;45.99;100973.72;10466872;28;20133;-68
2022/01/30 16:45:59;;;;;;;24.17;4.80;;;;;;;5.72;46.06;100961.09;10470030;28;20056;-67
2022/01/30 16:51:02;;;;;;;27.20;5.78;;;;;;;5.65;46.54;100959.56;10473424;28;20060;-68
2022/01/30 16:56:04;;;;;;;26.92;6.22;;;;;;;5.58;46.84;100955.38;10474037;28;20055;-68
2022/01/30 17:01:06;;;;;;;23.58;5.85;;;;;;;5.45;46.61;100956.56;10484961;28;20447;-67
2022/01/30 17:06:08;;;;;;;29.95;6.80;;;;;;;5.34;46.96;100943.84;10473065;28;20074;-68
2022/01/30 17:11:12;;;;;;;33.30;7.22;;;;;;;5.23;47.31;100953.59;10472792;28;20139;-67
2022/01/30 17:16:21;;;;;;;27.55;7.38;;;;;;;5.29;47.55;100950.00;10471792;28;20058;-67
2022/01/30 17:21:23;;;;;;;33.35;7.63;;;;;;;5.12;47.72;100939.16;10472022;28;20054;-67
2022/01/30 17:26:24;;;;;;;27.73;6.03;;;;;;;4.92;47.88;100939.59;10471561;28;20141;-68
2022/01/30 17:31:26;;;;;;;31.98;5.53;;;;;;;4.69;48.53;100934.88;10473483;28;20174;-67
2022/01/30 17:36:28;;;;;;;34.92;6.07;;;;;;;4.51;49.13;100935.22;10509839;28;20052;-68
2022/01/30 17:41:30;;;;;;;32.17;5.50;;;;;;;4.38;49.52;100919.94;10477010;28;20057;-68
2022/01/30 17:46:32;;;;;;;35.13;5.72;;;;;;;4.28;50.13;100911.47;10504411;28;20572;-69
2022/01/30 17:51:34;;;;;;;32.65;6.28;;;;;;;4.15;50.37;100909.16;10470108;28;20428;-68
2022/01/30 17:56:36;;;;;;;30.65;7.07;;;;;;;4.00;50.86;100902.50;10471013;28;20049;-68
2022/01/30 18:01:38;;;;;;;33.20;9.77;;;;;;;3.92;51.51;100894.03;10470558;28;20497;-67
2022/01/30 18:06:40;;;;;;;32.47;6.20;;;;;;;3.84;51.26;100896.72;10470467;28;20052;-67
2022/01/30 18:11:42;;;;;;;26.00;5.20;;;;;;;3.78;51.83;100890.78;10470053;28;20485;-68
2022/01/30 18:16:44;;;;;;;32.85;6.40;;;;;;;3.65;52.18;100877.22;10469881;28;20056;-69
2022/01/30 18:21:46;;;;;;;27.10;4.90;;;;;;;3.53;52.56;100877.41;10471361;28;20049;-69
2022/01/30 18:26:48;;;;;;;23.80;5.20;;;;;;;3.48;52.69;100874.03;10469801;28;20791;-70
2022/01/30 18:31:53;;;;;;;27.20;6.63;;;;;;;3.43;53.46;100862.06;10468825;28;20145;-69
2022/01/30 18:36:58;;;;;;;30.65;6.05;;;;;;;3.29;53.96;100851.09;10470020;28;20485;-69
2022/01/30 18:42:00;;;;;;;27.55;6.00;;;;;;;3.18;54.70;100845.22;10469752;28;20071;-69
2022/01/30 18:47:05;;;;;;;29.13;5.72;;;;;;;3.10;54.58;100829.81;10467465;28;20497;-69
2022/01/30 18:52:09;;;;;;;28.15;6.05;;;;;;;3.02;55.27;100827.38;10468123;28;20310;-69
2022/01/30 18:57:17;;;;;;;25.67;5.90;;;;;;;2.84;55.55;100831.94;10468110;28;20480;-69
2022/01/30 19:02:19;;;;;;;29.58;8.45;;;;;;;2.66;55.97;100834.78;10468335;28;20057;-69
2022/01/30 19:07:25;;;;;;;33.08;8.95;;;;;;;2.52;56.36;100816.88;10467269;28;20076;-69
2022/01/30 19:12:29;;;;;;;34.95;9.98;;;;;;;2.42;56.49;100812.69;10467094;28;20068;-68
2022/01/30 19:17:30;;;;;;;32.40;8.90;;;;;;;2.28;56.54;100803.41;10466960;28;20148;-69
2022/01/30 19:22:33;;;;;;;31.15;8.43;;;;;;;2.24;57.29;100802.59;10470153;28;20527;-69
2022/01/30 19:27:35;;;;;;;35.22;8.32;;;;;;;2.21;57.07;100797.50;10469183;28;20056;-69
2022/01/30 19:32:37;;;;;;;32.00;7.80;;;;;;;2.19;57.25;100797.50;10465811;28;20050;-69
2022/01/30 19:37:39;;;;;;;37.83;10.77;;;;;;;2.07;57.65;100791.66;10467478;28;20052;-69
2022/01/30 19:42:41;;;;;;;32.70;8.93;;;;;;;1.94;58.12;100779.75;10468647;28;20147;-69
2022/01/30 19:47:49;;;;;;;35.28;10.38;;;;;;;1.78;58.33;100770.47;10466911;28;20046;-69
2022/01/30 19:52:51;;;;;;;30.48;7.13;;;;;;;1.73;58.48;100773.09;10467286;28;20061;-69
2022/01/30 19:57:53;;;;;;;37.60;8.10;;;;;;;1.77;58.84;100781.63;10465400;28;20052;-68
2022/01/30 20:02:55;;;;;;;33.63;7.60;;;;;;;1.74;58.86;100773.94;10465354;28;20055;-68
2022/01/30 20:07:58;;;;;;;33.38;7.50;;;;;;;1.67;58.39;100756.81;10466482;28;20071;-69
2022/01/30 20:12:59;;;;;;;30.15;7.90;;;;;;;1.59;58.80;100758.63;10466953;28;20056;-68
2022/01/30 20:18:01;;;;;;;30.88;7.85;;;;;;;1.58;58.85;100751.78;10467319;28;20062;-68
2022/01/30 20:23:04;;;;;;;31.50;8.60;;;;;;;1.48;58.72;100740.72;10472478;28;20412;-68
2022/01/30 20:28:06;;;;;;;28.85;6.25;;;;;;;1.30;59.32;100734.00;10473962;28;20558;-68
2022/01/30 20:33:08;;;;;;;35.85;7.75;;;;;;;1.18;59.61;100731.53;10474077;28;20110;-68
2022/01/30 20:38:14;;;;;;;27.50;6.50;;;;;;;1.15;59.79;100721.28;10472931;28;20070;-68
2022/01/30 20:43:16;;;;;;;34.55;7.40;;;;;;;1.09;59.91;100705.03;10455011;28;20598;-68
2022/01/30 20:48:18;;;;;;;24.05;6.45;;;;;;;1.01;60.27;100692.22;10471999;28;20084;-68
2022/01/30 20:53:19;;;;;;;29.02;7.20;;;;;;;1.01;60.53;100692.22;10472180;28;20515;-68
2022/01/30 20:58:22;;;;;;;25.75;6.38;;;;;;;1.15;60.53;100686.94;10472372;28;20055;-68
2022/01/30 21:03:28;;;;;;;27.20;7.00;;;;;;;1.18;60.37;100679.16;10471122;28;20074;-68
2022/01/30 21:08:34;;;;;;;34.88;8.25;;;;;;;1.13;60.09;100680.94;10478674;28;20075;-68
2022/01/30 21:13:38;;;;;;;31.17;7.03;;;;;;;1.10;60.16;100657.75;10471053;28;20135;-69
2022/01/30 21:18:40;;;;;;;28.17;7.45;;;;;;;1.03;60.27;100646.69;10470824;28;20443;-69
2022/01/30 21:23:43;;;;;;;28.95;7.57;;;;;;;1.10;60.57;100622.56;10472055;28;20071;-69
2022/01/30 21:28:45;;;;;;;28.02;7.45;;;;;;;1.11;60.27;100598.53;10471552;28;20495;-68
2022/01/30 21:33:48;;;;;;;31.60;6.88;;;;;;;1.18;60.44;100582.13;10470651;28;20082;-68
2022/01/30 21:38:49;;;;;;;38.10;15.38;;;;;;;1.25;60.31;100554.56;10471611;28;20570;-69
2022/01/30 21:43:52;;;;;;;30.10;11.05;;;;;;;1.27;60.42;100543.38;10468011;28;20053;-69
2022/01/30 21:48:53;;;;;;;29.33;9.80;;;;;;;1.32;60.28;100544.16;10466657;28;20056;-68
2022/01/30 21:53:55;;;;;;;24.00;7.07;;;;;;;1.30;60.52;100522.72;10473298;28;20055;-69
2022/01/30 21:58:57;;;;;;;22.17;5.70;;;;;;;1.16;60.38;100519.47;10469716;28;20052;-69
2022/01/30 22:03:59;;;;;;;24.42;6.03;;;;;;;1.22;60.47;100539.13;10490943;28;20451;-69
2022/01/30 22:09:01;;;;;;;24.55;6.65;;;;;;;1.28;60.40;100532.19;10469512;28;20555;-69
2022/01/30 22:14:04;;;;;;;30.38;7.00;;;;;;;1.43;60.27;100507.94;10468147;28;20058;-69
2022/01/30 22:19:06;;;;;;;29.80;7.78;;;;;;;1.40;59.97;100486.53;10468168;28;20291;-69
2022/01/30 22:24:08;;;;;;;29.58;6.90;;;;;;;1.31;60.55;100480.63;10467757;28;20059;-68
2022/01/30 22:29:12;;;;;;;32.05;8.95;;;;;;;1.31;60.52;100475.47;10466373;28;20139;-69
2022/01/30 22:34:14;;;;;;;25.00;6.53;;;;;;;1.24;60.52;100471.25;10491173;28;20520;-69
2022/01/30 22:39:16;;;;;;;23.20;5.88;;;;;;;1.20;60.76;100450.72;10466893;28;20063;-68
2022/01/30 22:44:17;;;;;;;25.13;7.00;;;;;;;1.17;60.66;100453.34;10467126;28;20041;-69
2022/01/30 22:49:19;;;;;;;29.38;5.45;;;;;;;1.11;60.80;100445.69;10467972;28;20481;-69
2022/01/30 22:54:22;;;;;;;24.00;6.38;;;;;;;1.21;60.83;100466.16;10479002;28;20423;-69
2022/01/30 22:59:24;;;;;;;25.33;5.68;;;;;;;1.26;60.93;100436.03;10466475;28;20053;-69
2022/01/30 23:04:25;;;;;;;24.42;8.20;;;;;;;1.48;60.55;100435.72;10465160;28;20041;-68
2022/01/30 23:09:27;;;;;;;25.30;6.35;;;;;;;1.38;60.58;100429.84;10466882;28;20041;-68
2022/01/30 23:14:30;;;;;;;28.20;7.63;;;;;;;1.57;60.38;100400.34;10465346;28;20048;-68
2022/01/30 23:19:32;;;;;;;22.65;5.85;;;;;;;1.45;60.37;100386.78;10478772;28;20063;-68
2022/01/30 23:24:34;;;;;;;26.45;6.82;;;;;;;1.51;60.54;100390.13;10464208;28;20494;-69
2022/01/30 23:29:36;;;;;;;22.13;5.68;;;;;;;1.68;60.30;100397.59;10466111;28;20052;-69
2022/01/30 23:34:38;;;;;;;25.13;6.57;;;;;;;1.89;59.74;100392.91;10463800;28;20654;-68
2022/01/30 23:39:40;;;;;;;23.60;5.30;;;;;;;1.92;59.62;100376.53;10464974;28;20049;-68
2022/01/30 23:44:44;;;;;;;22.90;6.63;;;;;;;2.06;59.66;100310.94;10465599;28;20051;-68
2022/01/30 23:49:46;;;;;;;20.98;5.80;;;;;;;2.09;59.53;100300.53;10461158;28;20330;-69
2022/01/30 23:54:48;;;;;;;22.33;5.55;;;;;;;2.08;59.65;100305.72;10469527;28;20314;-68
2022/01/30 23:59:49;;;;;;;21.88;5.95;;;;;;;2.20;59.03;100282.28;10473752;28;20086;-69
